createdAt,value
2024-02-24T00:00:59.352Z,32.80
2024-02-24T00:03:44.795Z,34.38
2024-02-24T00:06:30.264Z,35.22
2024-02-24T00:09:15.722Z,26.50
2024-02-24T00:12:03.575Z,31.35
2024-02-24T00:14:49.052Z,28.92
2024-02-24T00:17:34.532Z,30.10
2024-02-24T00:20:22.445Z,30.27
2024-02-24T00:23:09.369Z,32.35
2024-02-24T00:25:54.726Z,25.98
2024-02-24T00:28:40.166Z,28.40
2024-02-24T00:31:25.760Z,28.73
2024-02-24T00:34:13.541Z,27.20
2024-02-24T00:36:58.945Z,23.67
2024-02-24T00:39:44.486Z,22.42
2024-02-24T00:42:30.065Z,23.70
2024-02-24T00:45:15.685Z,25.08
2024-02-24T00:48:01.324Z,28.23
2024-02-24T00:50:46.806Z,25.45
2024-02-24T00:53:32.355Z,24.83
2024-02-24T00:56:18.098Z,27.40
2024-02-24T00:59:03.696Z,26.35
2024-02-24T01:01:49.491Z,21.23
2024-02-24T01:04:35.061Z,25.20
2024-02-24T01:07:20.814Z,28.90
2024-02-24T01:10:07.097Z,22.05
2024-02-24T01:12:52.829Z,23.05
2024-02-24T01:15:38.432Z,23.48
2024-02-24T01:18:24.451Z,20.38
2024-02-24T01:21:10.425Z,20.95
2024-02-24T01:23:56.020Z,18.98
2024-02-24T01:26:41.736Z,15.45
2024-02-24T01:29:27.319Z,21.50
2024-02-24T01:32:12.976Z,21.42
2024-02-24T01:34:59.163Z,18.88
2024-02-24T01:37:44.702Z,16.17
2024-02-24T01:40:31.409Z,17.00
2024-02-24T01:43:28.002Z,12.18
2024-02-24T01:46:15.335Z,15.65
2024-02-24T01:49:04.152Z,12.65
2024-02-24T01:51:49.760Z,13.25
2024-02-24T01:54:36.430Z,10.43
2024-02-24T01:57:25.005Z,16.02
2024-02-24T02:00:11.606Z,12.48
2024-02-24T02:02:56.959Z,10.90
2024-02-24T02:05:42.944Z,13.38
2024-02-24T02:08:28.503Z,12.57
2024-02-24T02:11:14.196Z,11.48
2024-02-24T02:13:59.689Z,11.48
2024-02-24T02:16:45.186Z,12.70
2024-02-24T02:19:30.957Z,15.48
2024-02-24T02:22:17.636Z,10.50
2024-02-24T02:25:03.114Z,9.70
2024-02-24T02:27:48.531Z,11.93
2024-02-24T02:30:34.263Z,8.45
2024-02-24T02:33:20.059Z,12.38
2024-02-24T02:36:06.384Z,7.90
2024-02-24T02:38:51.930Z,9.65
2024-02-24T02:41:37.266Z,8.70
2024-02-24T02:44:22.872Z,9.27
2024-02-24T02:47:17.168Z,11.13
2024-02-24T02:50:08.618Z,10.15
2024-02-24T02:52:54.499Z,8.38
2024-02-24T02:55:39.870Z,8.80
2024-02-24T02:58:25.325Z,11.45
2024-02-24T03:01:11.034Z,7.40
2024-02-24T03:03:56.536Z,7.38
2024-02-24T03:06:42.300Z,6.93
2024-02-24T03:09:27.723Z,8.10
2024-02-24T03:12:13.433Z,9.05
2024-02-24T03:15:02.162Z,12.15
2024-02-24T03:17:47.389Z,6.18
2024-02-24T03:20:33.010Z,5.97
2024-02-24T03:23:18.548Z,5.50
2024-02-24T03:26:04.405Z,8.00
2024-02-24T03:28:49.921Z,8.05
2024-02-24T03:31:35.576Z,5.78
2024-02-24T03:34:21.052Z,6.25
2024-02-24T03:37:06.707Z,7.28
2024-02-24T03:39:52.241Z,6.18
2024-02-24T03:42:37.544Z,4.35
2024-02-24T03:45:23.109Z,6.10
2024-02-24T03:48:08.620Z,5.45
2024-02-24T03:50:54.253Z,5.18
2024-02-24T03:53:39.854Z,4.32
2024-02-24T03:56:25.470Z,5.32
2024-02-24T03:59:11.123Z,3.88
2024-02-24T04:01:56.698Z,4.80
2024-02-24T04:04:42.330Z,4.28
2024-02-24T04:07:27.972Z,4.35
2024-02-24T04:10:13.726Z,4.63
2024-02-24T04:12:58.973Z,3.83
2024-02-24T04:15:48.598Z,3.83
2024-02-24T04:18:33.974Z,3.67
2024-02-24T04:21:21.582Z,2.42
2024-02-24T04:24:09.563Z,3.05
2024-02-24T04:26:54.917Z,4.22
2024-02-24T04:29:40.413Z,3.75
2024-02-24T04:32:26.053Z,3.42
2024-02-24T04:35:12.088Z,2.65
2024-02-24T04:37:57.488Z,3.55
2024-02-24T04:40:43.449Z,2.50
2024-02-24T04:43:28.827Z,2.35
2024-02-24T04:46:14.104Z,3.75
2024-02-24T04:48:59.899Z,1.88
2024-02-24T04:51:45.296Z,1.35
2024-02-24T04:54:30.878Z,3.25
2024-02-24T04:57:16.469Z,2.67
2024-02-24T05:00:01.969Z,2.63
2024-02-24T05:02:47.904Z,1.98
2024-02-24T05:05:34.147Z,2.45
2024-02-24T05:08:19.998Z,2.13
2024-02-24T05:11:05.555Z,2.67
2024-02-24T05:13:51.083Z,3.55
2024-02-24T05:16:41.268Z,2.30
2024-02-24T05:19:26.857Z,2.03
2024-02-24T05:22:12.040Z,1.80
2024-02-24T05:24:57.772Z,1.88
2024-02-24T05:27:43.369Z,1.58
2024-02-24T05:30:28.911Z,1.45
2024-02-24T05:33:15.410Z,3.25
2024-02-24T05:36:01.108Z,1.38
2024-02-24T05:38:46.742Z,1.25
2024-02-24T05:41:32.185Z,1.70
2024-02-24T05:44:18.511Z,1.42
2024-02-24T05:47:05.123Z,2.33
2024-02-24T05:49:50.945Z,2.28
2024-02-24T05:52:36.989Z,2.35
2024-02-24T05:55:22.646Z,2.33
2024-02-24T05:58:09.928Z,3.20
2024-02-24T06:00:55.481Z,1.83
2024-02-24T06:03:41.081Z,1.15
2024-02-24T06:06:26.604Z,2.38
2024-02-24T06:09:12.146Z,1.17
2024-02-24T06:11:57.615Z,1.83
2024-02-24T06:14:43.185Z,1.75
2024-02-24T06:17:28.738Z,2.58
2024-02-24T06:20:14.204Z,1.83
2024-02-24T06:23:00.090Z,1.83
2024-02-24T06:25:45.501Z,1.30
2024-02-24T06:28:31.295Z,1.83
2024-02-24T06:31:17.835Z,3.83
2024-02-24T06:34:07.139Z,4.20
2024-02-24T06:36:53.904Z,14.98
2024-02-24T06:39:39.545Z,8.20
2024-02-24T06:42:25.086Z,9.40
2024-02-24T06:45:10.760Z,6.60
2024-02-24T06:47:56.432Z,6.18
2024-02-24T06:50:42.027Z,7.25
2024-02-24T06:53:27.730Z,3.28
2024-02-24T06:56:13.185Z,5.65
2024-02-24T06:58:59.790Z,7.22
2024-02-24T07:01:45.051Z,4.53
2024-02-24T07:04:31.917Z,4.25
2024-02-24T07:07:17.503Z,1.95
2024-02-24T07:10:05.578Z,3.78
2024-02-24T07:12:51.007Z,5.93
2024-02-24T07:15:36.670Z,4.40
2024-02-24T07:18:22.332Z,3.08
2024-02-24T07:21:08.093Z,4.00
2024-02-24T07:23:53.695Z,3.80
2024-02-24T07:26:50.359Z,5.13
2024-02-24T07:29:37.097Z,3.15
2024-02-24T07:32:23.012Z,4.90
2024-02-24T07:35:09.503Z,3.53
2024-02-24T07:37:55.074Z,4.32
2024-02-24T07:40:41.359Z,3.13
2024-02-24T07:43:26.777Z,2.00
2024-02-24T07:46:21.207Z,5.57
2024-02-24T07:49:06.675Z,4.60
2024-02-24T07:51:52.534Z,3.22
2024-02-24T07:54:38.165Z,3.75
2024-02-24T07:57:23.615Z,4.15
2024-02-24T08:00:10.236Z,3.55
2024-02-24T08:02:55.734Z,3.70
2024-02-24T08:05:41.000Z,2.03
2024-02-24T08:08:27.024Z,1.60
2024-02-24T08:11:12.588Z,2.45
2024-02-24T08:13:58.569Z,2.38
2024-02-24T08:16:43.908Z,2.25
2024-02-24T08:19:34.763Z,1.98
2024-02-24T08:22:20.277Z,0.88
2024-02-24T08:25:06.462Z,1.67
2024-02-24T08:27:51.806Z,2.63
2024-02-24T08:30:37.517Z,3.05
2024-02-24T08:33:24.399Z,2.78
2024-02-24T08:36:10.378Z,3.42
2024-02-24T08:38:57.982Z,4.35
2024-02-24T08:41:43.496Z,3.55
2024-02-24T08:44:29.173Z,3.80
2024-02-24T08:47:14.795Z,2.13
2024-02-24T08:50:00.232Z,2.35
2024-02-24T08:52:50.350Z,3.55
2024-02-24T08:55:36.480Z,1.83
2024-02-24T08:58:21.983Z,2.63
2024-02-24T09:01:07.613Z,1.50
2024-02-24T09:03:53.463Z,2.42
2024-02-24T09:06:39.269Z,1.80
2024-02-24T09:09:24.829Z,1.90
2024-02-24T09:12:10.344Z,2.13
2024-02-24T09:14:55.997Z,2.40
2024-02-24T09:17:41.763Z,2.55
2024-02-24T09:20:30.270Z,1.48
2024-02-24T09:23:15.687Z,1.33
2024-02-24T09:26:01.428Z,3.30
2024-02-24T09:28:46.946Z,2.40
2024-02-24T09:31:32.534Z,4.13
2024-02-24T09:34:20.079Z,3.95
2024-02-24T09:37:06.542Z,4.15
2024-02-24T09:39:52.058Z,2.72
2024-02-24T09:42:37.875Z,2.28
2024-02-24T09:45:23.721Z,3.47
2024-02-24T09:48:10.394Z,6.72
2024-02-24T09:50:56.066Z,3.17
2024-02-24T09:53:41.907Z,3.72
2024-02-24T09:56:27.222Z,3.25
2024-02-24T09:59:12.842Z,3.47
2024-02-24T10:01:58.533Z,3.28
2024-02-24T10:04:44.218Z,3.05
2024-02-24T10:07:31.517Z,3.45
2024-02-24T10:10:18.105Z,3.25
2024-02-24T10:13:04.182Z,3.75
2024-02-24T10:15:49.769Z,3.97
2024-02-24T10:18:35.510Z,2.88
2024-02-24T10:21:24.278Z,3.08
2024-02-24T10:24:09.645Z,3.05
2024-02-24T10:26:55.306Z,3.83
2024-02-24T10:29:41.455Z,2.10
2024-02-24T10:32:27.154Z,2.22
2024-02-24T10:35:12.959Z,2.80
2024-02-24T10:38:11.570Z,3.13
2024-02-24T10:41:03.991Z,2.53
2024-02-24T10:43:52.770Z,2.65
2024-02-24T10:46:44.538Z,2.55
2024-02-24T10:49:30.540Z,4.53
2024-02-24T10:52:17.836Z,13.65
2024-02-24T10:55:03.549Z,2.45
2024-02-24T10:57:52.270Z,2.80
2024-02-24T11:00:38.834Z,3.95
2024-02-24T11:03:24.671Z,3.17
2024-02-24T11:06:10.778Z,2.20
2024-02-24T11:08:56.524Z,4.45
2024-02-24T11:11:43.621Z,2.70
2024-02-24T11:14:29.463Z,3.63
2024-02-24T11:17:53.138Z,3.72
2024-02-24T11:20:39.442Z,3.03
2024-02-24T11:23:27.629Z,4.30
2024-02-24T11:26:22.130Z,3.88
2024-02-24T11:29:10.023Z,2.72
2024-02-24T11:32:07.807Z,3.20
2024-02-24T11:34:53.181Z,2.72
2024-02-24T11:37:38.921Z,3.15
2024-02-24T11:40:24.589Z,3.58
2024-02-24T11:43:10.248Z,4.30
2024-02-24T11:45:55.496Z,5.32
2024-02-24T11:48:41.048Z,7.28
2024-02-24T11:51:26.825Z,5.80
2024-02-24T11:54:12.508Z,4.00
2024-02-24T11:56:58.022Z,2.90
2024-02-24T11:59:43.922Z,4.63
2024-02-24T12:02:29.781Z,3.72
2024-02-24T12:05:15.949Z,3.53
2024-02-24T12:08:06.042Z,2.20
2024-02-24T12:10:51.684Z,5.95
2024-02-24T12:13:37.173Z,3.28
2024-02-24T12:16:25.704Z,2.88
2024-02-24T12:19:13.760Z,5.03
2024-02-24T12:21:59.472Z,4.32
2024-02-24T12:24:45.314Z,4.55
2024-02-24T12:27:31.908Z,4.68
2024-02-24T12:30:17.931Z,6.78
2024-02-24T12:33:05.279Z,3.97
2024-02-24T12:35:50.824Z,3.72
2024-02-24T12:38:39.794Z,4.40
2024-02-24T12:41:27.261Z,4.00
2024-02-24T12:44:12.631Z,7.50
2024-02-24T12:46:58.066Z,5.82
2024-02-24T12:49:43.978Z,3.33
2024-02-24T12:52:29.863Z,4.20
2024-02-24T12:55:15.924Z,4.90
2024-02-24T12:58:01.914Z,4.35
2024-02-24T13:00:48.289Z,5.13
2024-02-24T13:03:34.062Z,4.97
2024-02-24T13:06:19.719Z,4.40
2024-02-24T13:09:06.431Z,7.78
2024-02-24T13:11:53.453Z,5.50
2024-02-24T13:14:39.075Z,4.65
2024-02-24T13:17:25.984Z,4.60
2024-02-24T13:20:11.691Z,4.68
2024-02-24T13:22:57.198Z,5.63
2024-02-24T13:25:44.532Z,5.25
2024-02-24T13:28:30.045Z,6.45
2024-02-24T13:31:15.642Z,5.38
2024-02-24T13:34:00.995Z,9.63
2024-02-24T13:36:46.397Z,5.22
2024-02-24T13:39:32.075Z,6.22
2024-02-24T13:42:17.572Z,6.90
2024-02-24T13:45:03.952Z,5.13
2024-02-24T13:47:53.286Z,5.45
2024-02-24T13:50:43.018Z,11.10
2024-02-24T13:53:28.629Z,8.95
2024-02-24T13:56:14.276Z,10.10
2024-02-24T13:59:02.652Z,9.48
2024-02-24T14:01:50.475Z,6.35
2024-02-24T14:04:36.485Z,6.07
2024-02-24T14:07:22.081Z,6.22
2024-02-24T14:10:08.123Z,5.55
2024-02-24T14:12:53.500Z,4.82
2024-02-24T14:15:39.254Z,5.55
2024-02-24T14:18:25.728Z,6.63
2024-02-24T14:21:11.400Z,4.80
2024-02-24T14:23:56.958Z,6.25
2024-02-24T14:26:42.695Z,7.57
2024-02-24T14:29:28.132Z,7.35
2024-02-24T14:32:13.849Z,6.07
2024-02-24T14:34:59.282Z,6.03
2024-02-24T14:37:44.987Z,7.57
2024-02-24T14:40:30.671Z,6.32
2024-02-24T14:43:17.101Z,10.13
2024-02-24T14:46:04.132Z,7.82
2024-02-24T14:48:49.820Z,7.38
2024-02-24T14:51:35.640Z,7.88
2024-02-24T14:54:22.048Z,9.40
2024-02-24T14:57:07.540Z,6.03
2024-02-24T14:59:54.020Z,6.40
2024-02-24T15:02:49.079Z,13.45
2024-02-24T15:05:44.708Z,10.13
2024-02-24T15:08:30.431Z,10.75
2024-02-24T15:11:16.161Z,8.13
2024-02-24T15:14:02.078Z,7.38
2024-02-24T15:16:49.109Z,10.75
2024-02-24T15:19:37.146Z,6.53
2024-02-24T15:22:22.937Z,10.55
2024-02-24T15:25:10.170Z,7.07
2024-02-24T15:27:55.679Z,11.70
2024-02-24T15:30:41.744Z,9.18
2024-02-24T15:33:27.707Z,13.25
2024-02-24T15:36:13.954Z,13.43
2024-02-24T15:38:59.951Z,17.65
2024-02-24T15:41:48.659Z,13.50
2024-02-24T15:44:34.594Z,13.93
2024-02-24T15:47:20.133Z,19.02
2024-02-24T15:50:06.120Z,13.73
2024-02-24T15:52:51.834Z,13.75
2024-02-24T15:55:37.334Z,11.38
2024-02-24T15:58:22.956Z,12.77
2024-02-24T16:01:08.638Z,11.40
2024-02-24T16:03:54.944Z,11.75
2024-02-24T16:06:41.219Z,18.45
2024-02-24T16:09:30.806Z,26.00
2024-02-24T16:12:16.611Z,20.27
2024-02-24T16:15:02.826Z,23.75
2024-02-24T16:17:49.081Z,22.40
2024-02-24T16:20:35.195Z,28.33
2024-02-24T16:23:20.735Z,27.60
2024-02-24T16:26:06.566Z,21.52
2024-02-24T16:28:56.746Z,18.05
2024-02-24T16:31:41.954Z,15.23
2024-02-24T16:34:27.679Z,29.48
2024-02-24T16:37:13.176Z,20.67
2024-02-24T16:39:59.963Z,29.70
2024-02-24T16:42:45.315Z,21.92
2024-02-24T16:45:30.910Z,18.90
2024-02-24T16:48:17.596Z,18.58
2024-02-24T16:51:03.611Z,27.05
2024-02-24T16:53:49.218Z,31.38
2024-02-24T16:56:34.839Z,36.58
2024-02-24T16:59:20.417Z,32.45
2024-02-24T17:02:06.898Z,32.13
2024-02-24T17:04:55.849Z,27.27
2024-02-24T17:07:41.504Z,33.67
2024-02-24T17:10:27.135Z,25.70
2024-02-24T17:13:13.244Z,28.42
2024-02-24T17:15:58.996Z,33.00
2024-02-24T17:18:44.884Z,40.42
2024-02-24T17:21:31.903Z,28.35
2024-02-24T17:24:17.660Z,26.67
2024-02-24T17:27:03.616Z,27.17
2024-02-24T17:29:50.227Z,27.05
2024-02-24T17:32:35.453Z,23.85
2024-02-24T17:35:21.099Z,30.75
2024-02-24T17:38:07.506Z,29.52
2024-02-24T17:40:53.297Z,41.25
2024-02-24T17:43:39.530Z,44.63
2024-02-24T17:46:25.168Z,46.17
2024-02-24T17:49:11.373Z,46.58
2024-02-24T17:51:59.051Z,38.75
2024-02-24T17:54:45.334Z,36.83
2024-02-24T17:57:31.064Z,33.35
2024-02-24T18:00:17.094Z,29.48
2024-02-24T18:03:02.759Z,30.77
2024-02-24T18:05:48.391Z,25.00
2024-02-24T18:08:36.014Z,24.45
2024-02-24T18:11:23.712Z,24.33
2024-02-24T18:14:09.192Z,21.80
2024-02-24T18:16:54.670Z,20.77
2024-02-24T18:19:40.481Z,17.75
2024-02-24T18:22:26.011Z,20.45
2024-02-24T18:25:11.807Z,24.73
2024-02-24T18:27:57.409Z,26.35
2024-02-24T18:30:43.060Z,24.90
2024-02-24T18:33:28.753Z,25.00
2024-02-24T18:36:14.588Z,21.73
2024-02-24T18:39:00.239Z,24.27
2024-02-24T18:41:45.828Z,28.45
2024-02-24T18:44:31.312Z,26.58
2024-02-24T18:47:16.905Z,28.35
2024-02-24T18:50:02.375Z,25.92
2024-02-24T18:52:47.855Z,28.65
2024-02-24T18:55:33.176Z,24.77
2024-02-24T18:58:18.709Z,22.75
2024-02-24T19:01:04.507Z,21.88
2024-02-24T19:03:49.694Z,22.67
2024-02-24T19:06:35.249Z,27.42
2024-02-24T19:09:21.461Z,30.15
2024-02-24T19:12:07.163Z,26.05
2024-02-24T19:14:57.292Z,25.73
2024-02-24T19:17:44.716Z,27.48
2024-02-24T19:20:30.533Z,24.70
2024-02-24T19:23:16.856Z,26.05
2024-02-24T19:26:02.558Z,23.75
2024-02-24T19:28:47.955Z,25.38
2024-02-24T19:31:33.753Z,21.85
2024-02-24T19:34:20.756Z,32.22
2024-02-24T19:37:10.310Z,22.98
2024-02-24T19:39:57.365Z,25.80
2024-02-24T19:42:42.671Z,29.00
2024-02-24T19:45:28.647Z,29.25
2024-02-24T19:48:15.650Z,29.52
2024-02-24T19:51:01.337Z,25.88
2024-02-24T19:53:46.945Z,25.02
2024-02-24T19:56:32.929Z,26.15
2024-02-24T19:59:19.063Z,28.75
2024-02-24T20:02:05.431Z,34.47
2024-02-24T20:04:51.244Z,53.38
2024-02-24T20:07:37.757Z,32.67
2024-02-24T20:10:23.190Z,30.95
2024-02-24T20:13:09.010Z,29.52
2024-02-24T20:15:54.442Z,30.77
2024-02-24T20:18:40.269Z,30.67
2024-02-24T20:21:28.008Z,25.23
2024-02-24T20:24:13.406Z,28.50
2024-02-24T20:26:59.206Z,32.20
2024-02-24T20:29:44.880Z,33.17
2024-02-24T20:32:30.218Z,36.53
2024-02-24T20:35:16.560Z,32.67
2024-02-24T20:38:01.756Z,35.88
2024-02-24T20:40:48.092Z,30.10
2024-02-24T20:43:36.924Z,37.42
2024-02-24T20:46:22.708Z,35.72
2024-02-24T20:49:08.172Z,36.65
2024-02-24T20:51:58.460Z,34.60
2024-02-24T20:54:46.946Z,29.58
2024-02-24T20:57:32.460Z,36.15
2024-02-24T21:00:18.436Z,35.53
2024-02-24T21:03:04.461Z,34.58
2024-02-24T21:05:50.313Z,38.00
2024-02-24T21:08:39.070Z,34.58
2024-02-24T21:11:24.912Z,38.55
2024-02-24T21:14:11.928Z,33.35
2024-02-24T21:16:57.635Z,29.83
2024-02-24T21:19:43.146Z,37.78
2024-02-24T21:22:28.596Z,36.08
2024-02-24T21:25:14.099Z,33.25
2024-02-24T21:27:59.793Z,49.25
2024-02-24T21:30:45.645Z,45.33
2024-02-24T21:33:37.069Z,40.68
2024-02-24T21:36:22.704Z,49.88
2024-02-24T21:39:08.401Z,47.55
2024-02-24T21:41:53.860Z,44.83
2024-02-24T21:44:39.496Z,33.55
2024-02-24T21:47:25.041Z,41.63
2024-02-24T21:50:10.902Z,42.15
2024-02-24T21:52:56.918Z,46.47
2024-02-24T21:55:42.542Z,43.30
2024-02-24T21:58:28.179Z,47.58
2024-02-24T22:01:18.031Z,49.17
2024-02-24T22:04:04.680Z,45.58
2024-02-24T22:06:50.453Z,45.85
2024-02-24T22:09:37.408Z,45.92
2024-02-24T22:12:23.002Z,43.58
2024-02-24T22:15:12.128Z,37.65
2024-02-24T22:17:57.840Z,43.90
2024-02-24T22:20:43.514Z,30.88
2024-02-24T22:23:29.167Z,33.25
2024-02-24T22:26:14.670Z,43.75
2024-02-24T22:29:01.817Z,50.95
2024-02-24T22:31:48.104Z,48.80
2024-02-24T22:34:37.375Z,41.88
2024-02-24T22:37:24.609Z,41.03
2024-02-24T22:40:10.587Z,45.28
2024-02-24T22:42:58.267Z,44.47
2024-02-24T22:45:43.781Z,49.85
2024-02-24T22:48:31.169Z,43.95
2024-02-24T22:51:17.841Z,43.40
2024-02-24T22:54:03.694Z,44.17
2024-02-24T22:56:49.153Z,38.97
2024-02-24T22:59:37.987Z,42.45
2024-02-24T23:02:23.268Z,42.05
2024-02-24T23:05:09.504Z,44.10
2024-02-24T23:07:55.153Z,41.85
2024-02-24T23:10:43.945Z,54.95
2024-02-24T23:13:29.155Z,54.53
2024-02-24T23:16:15.316Z,56.53
2024-02-24T23:19:00.760Z,47.85
2024-02-24T23:21:46.639Z,48.80
2024-02-24T23:24:32.071Z,51.78
2024-02-24T23:27:17.540Z,52.67
2024-02-24T23:30:03.080Z,44.90
2024-02-24T23:32:48.765Z,49.22
2024-02-24T23:35:37.094Z,43.30
2024-02-24T23:38:22.893Z,46.58
2024-02-24T23:41:08.320Z,47.83
2024-02-24T23:43:53.791Z,45.42
2024-02-24T23:46:39.596Z,38.20
2024-02-24T23:49:25.326Z,48.22
2024-02-24T23:52:11.196Z,44.72
2024-02-24T23:54:57.019Z,35.40
2024-02-24T23:57:42.397Z,38.00
